Latest Weather Observations for High Range (Wanganderry)

IDN60801

Issued at 1:03 pm EST Wednesday 19 September 2018 (issued every 10 minutes, with the page automatically refreshed every 10 minutes)

About weather observations | Map of weather stations | Latest weather observations for NSW | Other Formats
Station Details ID: 068262 Name: HIGH RANGE AWS (WANGANDERRY) Lat: -34.33 Lon: 150.27 Height: 813.6 m
Data from the previous 72 hours. | See also: Recent months for locations in New South Wales
Date/Time
EST
Temp
°C
App
Temp
°C
Dew
Point
°C
Rel
Hum
%
Delta-T
°C
Wind Press
QNH
hPa
Press
MSL
hPa
Rain since
9am
mm
Dir  Spd
km/h
Gust
km/h
Spd
kts
Gust
kts
19/01:00pm 17.9 9.4 0.6 31 8.0 WNW 35 48 19 26 1009.5 1008.5 0.0
19/12:40pm 18.3 10.6 0.0 29 8.3 WNW 30 46 16 25 1009.6 1008.6 0.0
19/12:30pm 18.0 8.5 -3.4 23 9.1 WNW 37 61 20 33 1009.6 1008.6 0.0
19/12:03pm 17.8 7.7 -5.4 20 9.4 WNW 39 57 21 31 1009.8 1008.8 0.0
19/12:00pm 18.0 7.2 -5.3 20 9.5 WNW 43 57 23 31 1009.7 1008.7 0.0
19/11:30am 18.8 9.7 -3.3 22 9.5 WNW 35 56 19 30 1009.6 1008.6 0.0
19/11:00am 19.8 10.3 -3.8 20 10.1 WNW 37 56 20 30 1009.3 1008.3 0.0
19/10:57am 19.5 10.0 -3.4 21 9.8 WNW 37 56 20 30 1009.2 1008.2 0.0
19/10:30am 19.1 10.8 -1.9 24 9.3 WNW 32 46 17 25 1009.5 1008.5 0.0
19/10:14am 19.2 11.2 -2.4 23 9.4 WNW 30 44 16 24 1009.5 1008.5 0.0
19/10:00am 19.0 9.7 -2.0 24 9.3 NW 37 56 20 30 1009.5 1008.5 0.0
19/09:30am 18.0 8.3 -2.3 25 8.8 NW 39 69 21 37 1009.7 1008.7 0.0
19/09:13am 17.9 9.3 -2.9 24 8.9 NNW 33 52 18 28 1010.0 1009.0 0.0
19/09:00am 17.5 9.4 -3.3 24 8.8 NNW 30 41 16 22 1010.2 1009.3 0.0
19/08:30am 16.0 7.3 -3.5 26 8.1 NNW 33 54 18 29 1010.8 1009.8 0.0
19/08:23am 15.6 7.8 -3.8 26 8.0 NNW 28 54 15 29 1010.6 1009.6 0.0
19/08:00am 14.2 8.3 -2.2 32 6.9 NW 19 35 10 19 1011.2 1010.2 0.0
19/07:30am 13.8 8.1 -3.9 29 7.1 WNW 17 30 9 16 1011.3 1010.4 0.0
19/07:00am 13.4 8.7 -4.7 28 7.1 WNW 11 17 6 9 1011.0 1010.0 0.0
19/06:30am 14.0 10.9 -6.2 24 7.7 NW 2 6 1 3 1010.5 1009.5 0.0
19/06:00am 14.2 10.7 -6.1 24 7.8 NW 4 9 2 5 1010.2 1009.3 0.0
19/05:30am 13.7 9.3 -5.9 25 7.5 NW 9 20 5 11 1010.2 1009.3 0.0
19/05:00am 13.3 8.1 -5.8 26 7.3 WNW 13 19 7 10 1010.3 1009.4 0.0
19/04:30am 14.2 8.7 -5.0 26 7.6 WNW 15 20 8 11 1010.5 1009.5 0.0
19/04:00am 14.3 10.0 -4.4 27 7.5 NNW 9 15 5 8 1010.6 1009.6 0.0
19/03:30am 14.2 10.1 -2.7 31 7.0 NNW 9 13 5 7 1010.3 1009.4 0.0
19/03:00am 13.5 9.2 -1.3 36 6.3 NW 11 17 6 9 1010.3 1009.4 0.0
19/02:30am 13.6 9.1 -0.4 38 6.1 NNW 13 17 7 9 1010.7 1009.7 0.0
19/02:00am 13.9 9.1 0.5 40 6.0 NNW 15 17 8 9 1011.1 1010.1 0.0
19/01:30am 13.6 8.6 1.3 43 5.5 NNW 17 20 9 11 1011.5 1010.6 0.0
19/01:00am 13.9 9.0 2.2 45 5.4 NNW 17 20 9 11 1012.1 1011.1 0.0
19/12:30am 14.2 9.0 2.5 45 5.4 NNW 19 22 10 12 1012.5 1011.6 0.0
19/12:00am 14.4 9.6 2.6 45 5.5 NNW 17 20 9 11 1012.8 1011.9 0.0
 
Date/Time
EST
Temp
°C
App
Temp
°C
Dew
Point
°C
Rel
Hum
%
Delta-T
°C
Wind Press
QNH
hPa
Press
MSL
hPa
Rain since
9am
mm
Dir  Spd
km/h
Gust
km/h
Spd
kts
Gust
kts
18/11:30pm 14.3 9.1 2.5 45 5.5 NNW 19 22 10 12 1013.1 1012.1 0.0
18/11:00pm 15.0 9.2 2.5 43 5.8 N 22 30 12 16 1013.4 1012.4 0.0
18/10:30pm 15.0 9.2 2.2 42 5.9 N 22 28 12 15 1013.7 1012.8 0.0
18/10:00pm 15.3 9.5 2.5 42 6.0 N 22 30 12 16 1014.1 1013.2 0.0
18/09:30pm 15.3 9.1 2.1 41 6.1 N 24 30 13 16 1014.4 1013.4 0.0
18/09:00pm 15.3 9.8 2.1 41 6.1 N 20 26 11 14 1014.5 1013.5 0.0
18/08:30pm 15.2 9.7 2.1 41 6.1 NNW 20 28 11 15 1014.7 1013.8 0.0
18/08:00pm 15.2 10.3 2.1 41 6.1 NNW 17 20 9 11 1014.9 1014.0 0.0
18/07:30pm 15.1 10.5 1.6 40 6.2 NNW 15 20 8 11 1014.9 1014.0 0.0
18/07:00pm 15.8 11.2 1.5 38 6.6 NNW 15 20 8 11 1014.7 1013.8 0.0
18/06:30pm 16.2 10.8 1.1 36 6.9 NNW 19 22 10 12 1014.5 1013.5 0.0
18/06:00pm 16.9 11.3 1.0 34 7.3 NNW 20 30 11 16 1014.4 1013.4 0.0
18/05:30pm 17.4 12.6 0.1 31 7.8 NW 15 22 8 12 1014.1 1013.2 0.0
18/05:00pm 18.2 12.3 -1.1 27 8.6 WNW 20 30 11 16 1014.0 1013.1 0.0
18/04:30pm 18.6 12.2 -1.8 25 9.0 WNW 22 32 12 17 1013.8 1012.9 0.0
18/04:00pm 18.9 11.2 -3.3 22 9.5 NW 28 41 15 22 1013.7 1012.8 0.0
18/03:30pm 19.1 10.5 -4.4 20 9.9 NW 32 44 17 24 1013.7 1012.8 0.0
18/03:00pm 19.3 11.2 -2.9 22 9.6 NW 30 46 16 25 1014.0 1013.1 0.0
18/02:52pm 19.2 11.3 -4.3 20 9.9 NW 28 46 15 25 1013.9 1013.0 0.0
18/02:30pm 20.3 13.1 -2.1 22 9.9 NNW 26 39 14 21 1014.4 1013.4 0.0
18/02:00pm 19.8 12.9 -2.5 22 9.8 NNW 24 35 13 19 1014.7 1013.8 0.0
18/01:30pm 19.1 12.6 -2.5 23 9.4 W 22 32 12 17 1015.0 1014.1 0.0
18/01:00pm 18.9 12.4 -2.7 23 9.4 WNW 22 33 12 18 1015.5 1014.6 0.0
18/12:30pm 19.4 14.1 -0.6 26 9.1 NW 17 35 9 19 1016.2 1015.3 0.0
18/12:00pm 17.8 12.5 -0.9 28 8.3 NW 17 30 9 16 1016.7 1015.9 0.0
18/11:30am 17.5 12.2 -0.7 29 8.1 NW 17 24 9 13 1017.3 1016.4 0.0
18/11:00am 16.3 10.9 -1.3 30 7.7 NW 17 24 9 13 1017.8 1017.0 0.0
18/10:30am 15.6 10.6 -1.0 32 7.2 NW 15 22 8 12 1018.4 1017.5 0.0
18/10:00am 15.7 10.4 -0.9 32 7.2 NW 17 26 9 14 1018.6 1017.7 0.0
18/09:30am 14.7 9.8 -0.6 35 6.7 NW 15 22 8 12 1019.1 1018.3 0.0
18/09:00am 13.8 10.0 -1.0 36 6.3 NNW 9 17 5 9 1019.3 1018.5 -
18/08:30am 12.7 7.3 -1.2 38 5.9 N 17 20 9 11 1019.4 1018.6 -
18/08:00am 11.7 7.3 0.2 45 5.0 N 13 17 7 9 1019.3 1018.5 -
18/07:30am 10.2 5.8 0.3 50 4.2 NNE 13 19 7 10 1019.2 1018.4 -
18/07:00am 9.1 4.3 0.0 53 3.8 N 15 17 8 9 1019.1 1018.3 -
18/06:30am 8.0 2.8 0.0 57 3.3 N 17 19 9 10 1019.0 1018.2 -
18/06:00am 7.4 1.9 0.4 61 2.9 N 19 22 10 12 1018.8 1018.0 -
18/05:30am 7.1 1.7 1.0 65 2.6 N 19 22 10 12 1018.8 1018.0 -
18/05:00am 6.8 1.8 1.3 68 2.3 N 17 20 9 11 1018.7 1017.8 -
18/04:30am 6.3 1.8 2.2 75 1.8 N 15 17 8 9 1018.7 1017.8 -
18/04:00am 6.5 2.1 2.9 78 1.6 N 15 19 8 10 1018.5 1017.6 -
18/03:30am 6.3 1.9 2.9 79 1.5 N 15 17 8 9 1018.5 1017.6 -
18/03:00am 6.0 1.7 3.5 84 1.1 N 15 17 8 9 1018.7 1017.8 0.0
18/02:30am 5.6 2.2 4.2 91 0.6 NNE 11 13 6 7 1019.0 1018.2 -
18/02:00am 5.2 1.8 4.0 92 0.5 NNE 11 13 6 7 1019.2 1018.4 -
18/01:30am 5.3 1.5 3.8 90 0.7 NNE 13 15 7 8 1019.5 1018.7 -
18/01:00am 5.3 1.9 3.8 90 0.7 NNE 11 13 6 7 1020.0 1019.2 -
18/12:30am 5.7 2.0 4.2 90 0.7 NNE 13 15 7 8 1020.3 1019.5 -
18/12:00am 5.3 1.5 3.8 90 0.7 NNE 13 15 7 8 1020.4 1019.6 -
 
Date/Time
EST
Temp
°C
App
Temp
°C
Dew
Point
°C
Rel
Hum
%
Delta-T
°C
Wind Press
QNH
hPa
Press
MSL
hPa
Rain since
9am
mm
Dir  Spd
km/h
Gust
km/h
Spd
kts
Gust
kts
17/11:30pm 5.5 1.6 3.5 87 0.9 NE 13 15 7 8 1020.5 1019.7 -
17/11:00pm 5.8 2.4 3.8 87 0.9 NE 11 15 6 8 1020.8 1020.0 -
17/10:30pm 5.9 2.4 3.7 86 1.0 NE 11 13 6 7 1021.0 1020.2 -
17/10:00pm 6.0 1.7 3.5 84 1.1 NE 15 19 8 10 1021.1 1020.3 -
17/09:30pm 6.4 1.4 3.6 82 1.2 NE 19 22 10 12 1021.1 1020.3 -
17/09:00pm 6.9 1.7 3.7 80 1.4 NE 20 24 11 13 1021.2 1020.4 0.0
17/08:30pm 7.3 2.1 3.7 78 1.6 NE 20 24 11 13 1021.3 1020.5 -
17/08:00pm 7.7 2.5 3.7 76 1.8 NE 20 26 11 14 1021.2 1020.4 -
17/07:30pm 8.2 2.2 3.5 72 2.1 NE 24 32 13 17 1021.1 1020.3 -
17/07:00pm 9.1 3.1 3.1 66 2.7 NE 24 30 13 16 1020.8 1020.0 -
17/06:30pm 9.9 4.5 1.3 55 3.7 NE 19 24 10 13 1020.7 1019.9 -
17/06:00pm 10.9 5.3 0.9 50 4.3 NNE 20 26 11 14 1020.4 1019.6 -
17/05:30pm 11.7 5.3 0.8 47 4.8 NNE 24 28 13 15 1020.0 1019.2 -
17/05:00pm 12.6 7.9 0.7 44 5.2 NNE 15 20 8 11 1020.1 1019.3 -
17/04:30pm 13.4 7.8 0.1 40 5.8 NNE 19 24 10 13 1019.9 1019.1 -
17/04:00pm 14.3 9.1 -0.2 37 6.3 NNE 17 28 9 15 1019.7 1018.8 -
17/03:30pm 14.1 8.8 -0.7 36 6.4 NNE 17 24 9 13 1019.9 1019.1 -
17/03:00pm 13.7 8.6 -1.9 34 6.5 N 15 24 8 13 1020.2 1019.4 -
17/02:30pm 14.2 9.6 -1.4 34 6.7 N 13 20 7 11 1020.4 1019.6 -
17/02:00pm 13.5 8.4 -1.6 35 6.4 N 15 26 8 14 1020.8 1020.0 -
17/10:30am 10.7 5.0 -0.4 46 4.7 N 19 26 10 14 1023.7 1022.9 0.0
17/10:00am 9.6 3.2 -1.7 45 4.6 N 22 32 12 17 1024.0 1023.2 0.0
17/09:30am 9.5 3.7 -1.5 46 4.5 N 19 24 10 13 1024.3 1023.6 0.0
17/09:00am 8.8 3.0 -1.3 49 4.1 NNE 19 28 10 15 1024.1 1023.3 0.0
17/08:30am 8.0 3.2 0.0 57 3.3 N 15 20 8 11 1024.2 1023.5 -
17/08:00am 6.9 2.5 0.1 62 2.8 NNE 13 20 7 11 1024.0 1023.2 0.0
17/07:30am 6.0 2.1 1.2 71 2.0 N 11 15 6 8 1023.7 1022.9 0.0
17/07:00am 5.3 1.3 0.5 71 1.9 N 11 13 6 7 1023.4 1022.7 0.0
17/06:30am 4.4 -0.4 0.4 75 1.6 N 15 17 8 9 1023.0 1022.2 0.0
17/06:00am 3.5 -1.0 -0.3 76 1.5 N 13 15 7 8 1022.9 1022.1 0.0
17/05:30am 3.5 -0.6 -0.5 75 1.6 N 11 13 6 7 1022.8 1022.0 0.0
17/05:00am 3.5 -0.7 -0.7 74 1.6 NNW 11 11 6 6 1022.7 1021.9 0.0
17/04:30am 3.4 -0.8 -1.0 73 1.7 NNW 11 13 6 7 1022.5 1021.7 0.0
17/04:00am 3.4 -0.8 -1.0 73 1.7 NNE 11 13 6 7 1022.1 1021.4 0.0
17/03:30am 3.4 -0.4 -1.0 73 1.7 ENE 9 11 5 6 1021.9 1021.1 0.0
17/03:00am 3.4 -0.4 -1.0 73 1.7 ENE 9 9 5 5 1022.0 1021.3 0.0
17/02:30am 3.5 0.1 -0.7 74 1.6 ENE 7 7 4 4 1022.1 1021.4 0.0
17/02:00am 3.7 0.5 -0.5 74 1.6 ENE 6 6 3 3 1022.1 1021.4 0.0
17/01:30am 3.9 1.1 -0.7 72 1.8 ENE 4 6 2 3 1022.6 1021.8 0.0
17/01:00am 4.1 1.3 -0.7 71 1.9 ENE 4 4 2 2 1022.8 1022.0 0.0
17/12:30am 4.2 1.0 -0.8 70 2.0 ENE 6 6 3 3 1022.8 1022.0 0.0
17/12:00am 4.0 1.1 -1.2 69 2.0 ENE 4 6 2 3 1022.7 1021.9 0.0
 
Date/Time
EST
Temp
°C
App
Temp
°C
Dew
Point
°C
Rel
Hum
%
Delta-T
°C
Wind Press
QNH
hPa
Press
MSL
hPa
Rain since
9am
mm
Dir  Spd
km/h
Gust
km/h
Spd
kts
Gust
kts
16/11:30pm 4.1 0.8 -1.3 68 2.1 ENE 6 6 3 3 1022.8 1022.0 0.0
16/11:00pm 4.3 1.4 -1.3 67 2.2 ENE 4 4 2 2 1022.9 1022.1 0.0
16/10:30pm 4.6 2.4 -1.4 65 2.3 CALM 0 4 0 2 1022.9 1022.1 0.0
16/10:00pm 4.7 2.2 -1.1 66 2.2 ENE 2 6 1 3 1022.9 1022.1 0.0
16/09:30pm 4.7 1.8 -1.1 66 2.3 ENE 4 4 2 2 1022.8 1022.0 0.0
16/09:00pm 4.4 1.4 -1.6 65 2.3 ENE 4 4 2 2 1022.6 1021.8 0.0
16/08:30pm 4.5 1.5 -1.9 63 2.4 ENE 4 6 2 3 1022.4 1021.6 0.0
16/08:00pm 4.5 0.5 -1.9 63 2.4 ENE 9 11 5 6 1022.0 1021.3 0.0
16/07:30pm 4.7 0.7 -2.2 61 2.6 E 9 13 5 7 1021.5 1020.7 0.0
16/07:00pm 5.2 1.7 -2.6 57 2.9 E 6 6 3 3 1021.0 1020.2 0.0
16/06:30pm 5.9 1.0 -3.2 52 3.4 ENE 13 19 7 10 1020.3 1019.5 0.0
16/06:00pm 7.8 2.2 -6.0 37 4.9 WNW 15 19 8 10 1019.5 1018.7 0.0
16/05:30pm 8.6 3.8 -6.0 35 5.3 WNW 11 20 6 11 1019.1 1018.3 0.0
16/05:00pm 9.7 4.2 -5.4 34 5.6 WNW 15 22 8 12 1018.8 1018.0 0.0
16/04:30pm 10.2 5.0 -5.7 32 5.9 SW 13 26 7 14 1018.7 1017.8 0.0
16/04:00pm 9.4 2.8 -7.3 30 5.9 W 20 26 11 14 1018.4 1017.5 0.0
16/03:30pm 11.2 5.3 -5.7 30 6.3 W 17 26 9 14 1017.9 1017.1 0.0
16/03:00pm 10.1 4.4 -7.6 28 6.3 WSW 15 26 8 14 1017.9 1017.1 0.0
16/02:30pm 10.4 3.2 -5.6 32 6.0 WSW 24 37 13 20 1017.7 1016.9 0.0
16/02:00pm 11.3 4.5 -5.6 30 6.4 WSW 22 32 12 17 1017.7 1016.9 0.0
16/01:30pm 10.7 3.8 -6.1 30 6.2 WSW 22 33 12 18 1017.5 1016.6 0.0

Other Formats:

Comma delimited format used in spreadsheet applications
http://www.bom.gov.au/fwo/IDN60801/IDN60801.99742.axf

JavaScript Object Notation format (JSON) in row-major order
http://www.bom.gov.au/fwo/IDN60801/IDN60801.99742.json